sensor_id;sensor_type;location;lat;lon;timestamp;temperature;humidity
12268;DHT22;6196;48.398;11.736;2023-05-10T00:02:04;14.30;99.90
12268;DHT22;6196;48.398;11.736;2023-05-10T00:04:31;14.20;99.90
12268;DHT22;6196;48.398;11.736;2023-05-10T00:06:58;13.90;99.90
12268;DHT22;6196;48.398;11.736;2023-05-10T00:09:24;14.10;99.90
12268;DHT22;6196;48.398;11.736;2023-05-10T00:11:51;13.90;99.90
12268;DHT22;6196;48.398;11.736;2023-05-10T00:14:18;13.90;99.90
12268;DHT22;6196;48.398;11.736;2023-05-10T00:16:45;13.80;99.90
12268;DHT22;6196;48.398;11.736;2023-05-10T00:19:12;13.90;99.90
12268;DHT22;6196;48.398;11.736;2023-05-10T00:21:39;13.80;99.90
12268;DHT22;6196;48.398;11.736;2023-05-10T00:24:06;13.80;99.90
12268;DHT22;6196;48.398;11.736;2023-05-10T00:26:33;14.00;99.90
12268;DHT22;6196;48.398;11.736;2023-05-10T00:29:00;14.00;99.90
12268;DHT22;6196;48.398;11.736;2023-05-10T00:31:27;14.00;99.90
12268;DHT22;6196;48.398;11.736;2023-05-10T00:33:55;14.00;99.90
12268;DHT22;6196;48.398;11.736;2023-05-10T00:36:22;13.90;99.90
12268;DHT22;6196;48.398;11.736;2023-05-10T00:38:49;13.90;99.90
12268;DHT22;6196;48.398;11.736;2023-05-10T00:41:15;14.00;99.90
12268;DHT22;6196;48.398;11.736;2023-05-10T00:43:43;13.90;99.90
12268;DHT22;6196;48.398;11.736;2023-05-10T00:46:10;13.80;99.90
12268;DHT22;6196;48.398;11.736;2023-05-10T00:48:37;13.80;99.90
12268;DHT22;6196;48.398;11.736;2023-05-10T00:51:04;13.90;99.90
12268;DHT22;6196;48.398;11.736;2023-05-10T00:53:31;14.00;99.90
12268;DHT22;6196;48.398;11.736;2023-05-10T00:55:59;14.00;99.90
12268;DHT22;6196;48.398;11.736;2023-05-10T00:58:27;14.10;99.90
12268;DHT22;6196;48.398;11.736;2023-05-10T01:00:55;14.00;99.90
12268;DHT22;6196;48.398;11.736;2023-05-10T01:03:25;14.10;99.90
12268;DHT22;6196;48.398;11.736;2023-05-10T01:05:52;14.10;99.90
12268;DHT22;6196;48.398;11.736;2023-05-10T01:08:19;14.10;99.90
12268;DHT22;6196;48.398;11.736;2023-05-10T01:10:46;14.10;99.90
12268;DHT22;6196;48.398;11.736;2023-05-10T01:13:47;14.10;99.90
12268;DHT22;6196;48.398;11.736;2023-05-10T01:16:11;14.10;99.90
12268;DHT22;6196;48.398;11.736;2023-05-10T01:18:40;14.00;99.90
12268;DHT22;6196;48.398;11.736;2023-05-10T01:23:59;13.90;99.90
12268;DHT22;6196;48.398;11.736;2023-05-10T01:30:25;13.90;99.90
12268;DHT22;6196;48.398;11.736;2023-05-10T01:35:40;13.90;99.90
12268;DHT22;6196;48.398;11.736;2023-05-10T01:41:17;14.00;99.90
12268;DHT22;6196;48.398;11.736;2023-05-10T01:47:09;13.80;99.90
12268;DHT22;6196;48.398;11.736;2023-05-10T01:49:58;13.80;99.90
12268;DHT22;6196;48.398;11.736;2023-05-10T01:52:41;13.70;99.90
12268;DHT22;6196;48.398;11.736;2023-05-10T01:55:14;13.60;99.90
12268;DHT22;6196;48.398;11.736;2023-05-10T01:57:44;13.80;99.90
12268;DHT22;6196;48.398;11.736;2023-05-10T02:00:14;13.60;99.90
12268;DHT22;6196;48.398;11.736;2023-05-10T02:02:46;13.70;99.90
12268;DHT22;6196;48.398;11.736;2023-05-10T02:05:16;13.70;99.90
12268;DHT22;6196;48.398;11.736;2023-05-10T02:07:44;13.70;99.90
12268;DHT22;6196;48.398;11.736;2023-05-10T02:10:12;13.70;99.90
12268;DHT22;6196;48.398;11.736;2023-05-10T02:12:45;13.70;99.90
12268;DHT22;6196;48.398;11.736;2023-05-10T02:15:20;13.80;99.90
12268;DHT22;6196;48.398;11.736;2023-05-10T02:17:49;13.80;99.90
12268;DHT22;6196;48.398;11.736;2023-05-10T02:20:16;13.90;99.90
12268;DHT22;6196;48.398;11.736;2023-05-10T02:22:47;13.90;99.90
12268;DHT22;6196;48.398;11.736;2023-05-10T02:25:18;13.80;99.90
12268;DHT22;6196;48.398;11.736;2023-05-10T02:27:47;13.80;99.90
12268;DHT22;6196;48.398;11.736;2023-05-10T02:30:15;13.80;99.90
12268;DHT22;6196;48.398;11.736;2023-05-10T02:32:44;13.80;99.90
12268;DHT22;6196;48.398;11.736;2023-05-10T02:35:12;13.80;99.90
12268;DHT22;6196;48.398;11.736;2023-05-10T02:37:39;13.80;99.90
12268;DHT22;6196;48.398;11.736;2023-05-10T02:40:07;13.90;99.90
12268;DHT22;6196;48.398;11.736;2023-05-10T02:42:37;13.80;99.90
12268;DHT22;6196;48.398;11.736;2023-05-10T02:45:08;13.80;99.90
12268;DHT22;6196;48.398;11.736;2023-05-10T02:47:38;13.70;99.90
12268;DHT22;6196;48.398;11.736;2023-05-10T02:50:06;13.60;99.90
12268;DHT22;6196;48.398;11.736;2023-05-10T02:52:47;13.60;99.90
12268;DHT22;6196;48.398;11.736;2023-05-10T02:55:15;13.70;99.90
12268;DHT22;6196;48.398;11.736;2023-05-10T02:57:48;13.70;99.90
12268;DHT22;6196;48.398;11.736;2023-05-10T03:00:18;13.70;99.90
12268;DHT22;6196;48.398;11.736;2023-05-10T03:02:44;13.70;99.90
12268;DHT22;6196;48.398;11.736;2023-05-10T03:05:11;13.70;99.90
12268;DHT22;6196;48.398;11.736;2023-05-10T03:07:38;13.60;99.90
12268;DHT22;6196;48.398;11.736;2023-05-10T03:10:06;13.70;99.90
12268;DHT22;6196;48.398;11.736;2023-05-10T03:12:57;13.60;99.90
12268;DHT22;6196;48.398;11.736;2023-05-10T03:16:06;13.50;99.90
12268;DHT22;6196;48.398;11.736;2023-05-10T03:18:56;13.50;99.90
12268;DHT22;6196;48.398;11.736;2023-05-10T03:21:29;13.60;99.90
12268;DHT22;6196;48.398;11.736;2023-05-10T03:24:01;13.60;99.90
12268;DHT22;6196;48.398;11.736;2023-05-10T03:26:32;13.60;99.90
12268;DHT22;6196;48.398;11.736;2023-05-10T03:29:00;13.50;99.90
12268;DHT22;6196;48.398;11.736;2023-05-10T03:31:27;13.60;99.90
12268;DHT22;6196;48.398;11.736;2023-05-10T03:33:54;13.50;99.90
12268;DHT22;6196;48.398;11.736;2023-05-10T03:36:21;13.50;99.90
12268;DHT22;6196;48.398;11.736;2023-05-10T03:38:48;13.50;99.90
12268;DHT22;6196;48.398;11.736;2023-05-10T03:41:15;13.40;99.90
12268;DHT22;6196;48.398;11.736;2023-05-10T03:43:42;13.50;99.90
12268;DHT22;6196;48.398;11.736;2023-05-10T03:46:08;13.50;99.90
12268;DHT22;6196;48.398;11.736;2023-05-10T03:48:36;13.50;99.90
12268;DHT22;6196;48.398;11.736;2023-05-10T03:51:03;13.60;99.90
12268;DHT22;6196;48.398;11.736;2023-05-10T03:53:30;13.50;99.90
12268;DHT22;6196;48.398;11.736;2023-05-10T03:55:56;13.50;99.90
12268;DHT22;6196;48.398;11.736;2023-05-10T03:58:23;13.40;99.90
12268;DHT22;6196;48.398;11.736;2023-05-10T04:00:51;13.50;99.90
12268;DHT22;6196;48.398;11.736;2023-05-10T04:03:18;13.50;99.90
12268;DHT22;6196;48.398;11.736;2023-05-10T04:05:45;13.60;99.90
12268;DHT22;6196;48.398;11.736;2023-05-10T04:08:12;13.60;99.90
12268;DHT22;6196;48.398;11.736;2023-05-10T04:10:39;13.60;99.90
12268;DHT22;6196;48.398;11.736;2023-05-10T04:13:06;13.60;99.90
12268;DHT22;6196;48.398;11.736;2023-05-10T04:15:33;13.50;99.90
12268;DHT22;6196;48.398;11.736;2023-05-10T04:18:00;13.60;99.90
12268;DHT22;6196;48.398;11.736;2023-05-10T04:20:27;13.60;99.90
12268;DHT22;6196;48.398;11.736;2023-05-10T04:22:54;13.60;99.90
12268;DHT22;6196;48.398;11.736;2023-05-10T04:25:21;13.60;99.90
12268;DHT22;6196;48.398;11.736;2023-05-10T04:27:48;13.50;99.90
12268;DHT22;6196;48.398;11.736;2023-05-10T04:30:15;13.50;99.90
12268;DHT22;6196;48.398;11.736;2023-05-10T04:32:42;13.60;99.90
12268;DHT22;6196;48.398;11.736;2023-05-10T04:35:09;13.70;99.90
12268;DHT22;6196;48.398;11.736;2023-05-10T04:37:37;13.70;99.90
12268;DHT22;6196;48.398;11.736;2023-05-10T04:40:04;13.70;99.90
12268;DHT22;6196;48.398;11.736;2023-05-10T04:42:32;13.80;99.90
12268;DHT22;6196;48.398;11.736;2023-05-10T04:44:59;13.70;99.90
12268;DHT22;6196;48.398;11.736;2023-05-10T04:47:26;13.70;99.90
12268;DHT22;6196;48.398;11.736;2023-05-10T04:49:53;13.70;99.90
12268;DHT22;6196;48.398;11.736;2023-05-10T04:52:20;13.70;99.90
12268;DHT22;6196;48.398;11.736;2023-05-10T04:54:47;13.80;99.90
12268;DHT22;6196;48.398;11.736;2023-05-10T04:57:14;13.70;99.90
12268;DHT22;6196;48.398;11.736;2023-05-10T04:59:41;13.70;99.90
12268;DHT22;6196;48.398;11.736;2023-05-10T05:02:08;13.70;99.90
12268;DHT22;6196;48.398;11.736;2023-05-10T05:04:35;13.80;99.90
12268;DHT22;6196;48.398;11.736;2023-05-10T05:07:02;13.70;99.90
12268;DHT22;6196;48.398;11.736;2023-05-10T05:09:29;13.80;99.90
12268;DHT22;6196;48.398;11.736;2023-05-10T05:11:58;13.80;99.90
12268;DHT22;6196;48.398;11.736;2023-05-10T05:14:26;13.90;99.90
12268;DHT22;6196;48.398;11.736;2023-05-10T05:16:53;13.90;99.90
12268;DHT22;6196;48.398;11.736;2023-05-10T05:19:20;14.00;99.90
12268;DHT22;6196;48.398;11.736;2023-05-10T05:21:47;14.00;99.90
12268;DHT22;6196;48.398;11.736;2023-05-10T05:24:13;14.00;99.90
12268;DHT22;6196;48.398;11.736;2023-05-10T05:26:40;14.00;99.90
12268;DHT22;6196;48.398;11.736;2023-05-10T05:29:07;14.00;99.90
12268;DHT22;6196;48.398;11.736;2023-05-10T05:31:34;14.10;99.90
12268;DHT22;6196;48.398;11.736;2023-05-10T05:34:01;14.00;99.90
12268;DHT22;6196;48.398;11.736;2023-05-10T05:36:28;14.10;99.90
12268;DHT22;6196;48.398;11.736;2023-05-10T05:38:55;14.20;99.90
12268;DHT22;6196;48.398;11.736;2023-05-10T05:41:22;14.10;99.90
12268;DHT22;6196;48.398;11.736;2023-05-10T05:43:50;14.10;99.90
12268;DHT22;6196;48.398;11.736;2023-05-10T05:46:17;14.10;99.90
12268;DHT22;6196;48.398;11.736;2023-05-10T05:48:44;14.20;99.90
12268;DHT22;6196;48.398;11.736;2023-05-10T05:51:10;14.40;99.90
12268;DHT22;6196;48.398;11.736;2023-05-10T05:53:37;14.30;99.90
12268;DHT22;6196;48.398;11.736;2023-05-10T05:56:04;14.30;99.90
12268;DHT22;6196;48.398;11.736;2023-05-10T05:58:31;14.40;99.90
12268;DHT22;6196;48.398;11.736;2023-05-10T06:00:58;14.30;99.90
12268;DHT22;6196;48.398;11.736;2023-05-10T06:03:25;14.20;99.90
12268;DHT22;6196;48.398;11.736;2023-05-10T06:05:52;14.30;99.90
12268;DHT22;6196;48.398;11.736;2023-05-10T06:08:19;14.30;99.90
12268;DHT22;6196;48.398;11.736;2023-05-10T06:10:46;14.40;99.90
12268;DHT22;6196;48.398;11.736;2023-05-10T06:13:14;14.20;99.90
12268;DHT22;6196;48.398;11.736;2023-05-10T06:15:42;14.30;99.90
12268;DHT22;6196;48.398;11.736;2023-05-10T06:18:08;14.40;99.90
12268;DHT22;6196;48.398;11.736;2023-05-10T06:20:36;14.40;99.90
12268;DHT22;6196;48.398;11.736;2023-05-10T06:23:02;14.40;99.90
12268;DHT22;6196;48.398;11.736;2023-05-10T06:25:29;14.40;99.90
12268;DHT22;6196;48.398;11.736;2023-05-10T06:27:56;14.40;99.90
12268;DHT22;6196;48.398;11.736;2023-05-10T06:30:25;14.60;99.90
12268;DHT22;6196;48.398;11.736;2023-05-10T06:32:56;14.50;99.90
12268;DHT22;6196;48.398;11.736;2023-05-10T06:35:23;14.50;99.90
12268;DHT22;6196;48.398;11.736;2023-05-10T06:37:50;14.50;99.90
12268;DHT22;6196;48.398;11.736;2023-05-10T06:40:18;14.50;99.90
12268;DHT22;6196;48.398;11.736;2023-05-10T06:42:45;14.60;99.90
12268;DHT22;6196;48.398;11.736;2023-05-10T06:45:13;14.60;99.90
12268;DHT22;6196;48.398;11.736;2023-05-10T06:47:41;14.80;99.90
12268;DHT22;6196;48.398;11.736;2023-05-10T06:50:09;14.80;99.90
12268;DHT22;6196;48.398;11.736;2023-05-10T06:52:38;14.80;99.90
12268;DHT22;6196;48.398;11.736;2023-05-10T06:55:06;15.00;99.90
12268;DHT22;6196;48.398;11.736;2023-05-10T06:57:33;15.00;99.90
12268;DHT22;6196;48.398;11.736;2023-05-10T07:00:00;15.00;99.90
12268;DHT22;6196;48.398;11.736;2023-05-10T07:02:27;15.10;99.90
12268;DHT22;6196;48.398;11.736;2023-05-10T07:04:55;15.20;99.90
12268;DHT22;6196;48.398;11.736;2023-05-10T07:07:21;15.30;99.90
12268;DHT22;6196;48.398;11.736;2023-05-10T07:09:48;15.20;99.90
12268;DHT22;6196;48.398;11.736;2023-05-10T07:12:16;15.30;99.90
12268;DHT22;6196;48.398;11.736;2023-05-10T07:14:43;15.30;99.90
12268;DHT22;6196;48.398;11.736;2023-05-10T07:17:10;15.50;99.90
12268;DHT22;6196;48.398;11.736;2023-05-10T07:19:37;15.20;99.90
12268;DHT22;6196;48.398;11.736;2023-05-10T07:22:04;15.30;99.90
12268;DHT22;6196;48.398;11.736;2023-05-10T07:24:32;15.50;99.90
12268;DHT22;6196;48.398;11.736;2023-05-10T07:26:59;15.50;99.90
12268;DHT22;6196;48.398;11.736;2023-05-10T07:29:26;15.40;99.90
12268;DHT22;6196;48.398;11.736;2023-05-10T07:31:53;15.50;99.90
12268;DHT22;6196;48.398;11.736;2023-05-10T07:34:24;15.50;99.90
12268;DHT22;6196;48.398;11.736;2023-05-10T07:36:51;15.70;99.90
12268;DHT22;6196;48.398;11.736;2023-05-10T07:39:18;15.90;99.90
12268;DHT22;6196;48.398;11.736;2023-05-10T07:41:54;16.10;99.90
12268;DHT22;6196;48.398;11.736;2023-05-10T07:44:21;16.10;99.90
12268;DHT22;6196;48.398;11.736;2023-05-10T07:46:48;16.30;99.90
12268;DHT22;6196;48.398;11.736;2023-05-10T07:49:15;16.30;99.90
12268;DHT22;6196;48.398;11.736;2023-05-10T07:51:42;16.40;99.90
12268;DHT22;6196;48.398;11.736;2023-05-10T07:54:09;16.60;99.90
12268;DHT22;6196;48.398;11.736;2023-05-10T07:56:36;16.60;99.90
12268;DHT22;6196;48.398;11.736;2023-05-10T07:59:03;16.80;99.90
12268;DHT22;6196;48.398;11.736;2023-05-10T08:01:33;16.60;99.90
12268;DHT22;6196;48.398;11.736;2023-05-10T08:04:01;16.80;99.90
12268;DHT22;6196;48.398;11.736;2023-05-10T08:06:28;17.30;99.90
12268;DHT22;6196;48.398;11.736;2023-05-10T08:08:56;17.90;99.90
12268;DHT22;6196;48.398;11.736;2023-05-10T08:11:23;18.40;99.90
12268;DHT22;6196;48.398;11.736;2023-05-10T08:13:51;18.60;99.90
12268;DHT22;6196;48.398;11.736;2023-05-10T08:16:18;18.60;99.90
12268;DHT22;6196;48.398;11.736;2023-05-10T08:18:46;18.20;99.90
12268;DHT22;6196;48.398;11.736;2023-05-10T08:21:14;18.00;99.90
12268;DHT22;6196;48.398;11.736;2023-05-10T08:23:42;18.20;99.90
12268;DHT22;6196;48.398;11.736;2023-05-10T08:26:10;18.70;99.90
12268;DHT22;6196;48.398;11.736;2023-05-10T08:28:37;18.80;99.90
12268;DHT22;6196;48.398;11.736;2023-05-10T08:31:05;18.70;99.90
12268;DHT22;6196;48.398;11.736;2023-05-10T08:33:32;18.40;99.90
12268;DHT22;6196;48.398;11.736;2023-05-10T08:35:59;18.30;99.90
12268;DHT22;6196;48.398;11.736;2023-05-10T08:38:26;18.30;99.90
12268;DHT22;6196;48.398;11.736;2023-05-10T08:40:54;18.30;99.90
12268;DHT22;6196;48.398;11.736;2023-05-10T08:43:29;17.70;99.90
12268;DHT22;6196;48.398;11.736;2023-05-10T08:46:00;17.40;99.90
12268;DHT22;6196;48.398;11.736;2023-05-10T08:48:29;17.20;99.90
12268;DHT22;6196;48.398;11.736;2023-05-10T08:51:00;16.80;99.90
12268;DHT22;6196;48.398;11.736;2023-05-10T08:53:29;16.40;99.90
12268;DHT22;6196;48.398;11.736;2023-05-10T08:55:57;16.20;99.90
12268;DHT22;6196;48.398;11.736;2023-05-10T08:58:25;16.00;99.90
12268;DHT22;6196;48.398;11.736;2023-05-10T09:00:52;16.10;99.90
12268;DHT22;6196;48.398;11.736;2023-05-10T09:03:19;16.10;99.90
12268;DHT22;6196;48.398;11.736;2023-05-10T09:05:46;16.50;99.90
12268;DHT22;6196;48.398;11.736;2023-05-10T09:08:15;16.60;99.90
12268;DHT22;6196;48.398;11.736;2023-05-10T09:10:46;16.50;99.90
12268;DHT22;6196;48.398;11.736;2023-05-10T09:13:15;16.50;99.90
12268;DHT22;6196;48.398;11.736;2023-05-10T09:15:43;16.70;99.90
12268;DHT22;6196;48.398;11.736;2023-05-10T09:18:11;16.80;99.90
12268;DHT22;6196;48.398;11.736;2023-05-10T09:20:38;17.10;99.90
12268;DHT22;6196;48.398;11.736;2023-05-10T09:23:05;17.20;99.90
12268;DHT22;6196;48.398;11.736;2023-05-10T09:25:32;17.00;99.90
12268;DHT22;6196;48.398;11.736;2023-05-10T09:28:06;17.00;99.90
12268;DHT22;6196;48.398;11.736;2023-05-10T09:30:35;17.30;99.90
12268;DHT22;6196;48.398;11.736;2023-05-10T09:33:02;18.20;99.90
12268;DHT22;6196;48.398;11.736;2023-05-10T09:35:31;18.70;99.90
12268;DHT22;6196;48.398;11.736;2023-05-10T09:38:02;18.80;99.90
12268;DHT22;6196;48.398;11.736;2023-05-10T09:40:32;18.40;99.90
12268;DHT22;6196;48.398;11.736;2023-05-10T09:43:08;17.90;99.90
12268;DHT22;6196;48.398;11.736;2023-05-10T09:45:35;17.60;99.90
12268;DHT22;6196;48.398;11.736;2023-05-10T09:48:05;17.20;99.90
12268;DHT22;6196;48.398;11.736;2023-05-10T09:50:32;16.80;99.90
12268;DHT22;6196;48.398;11.736;2023-05-10T09:53:03;16.70;99.90
12268;DHT22;6196;48.398;11.736;2023-05-10T09:55:44;16.80;99.90
12268;DHT22;6196;48.398;11.736;2023-05-10T09:58:13;16.80;99.90
12268;DHT22;6196;48.398;11.736;2023-05-10T10:00:43;16.90;99.90
12268;DHT22;6196;48.398;11.736;2023-05-10T10:03:15;17.20;99.90
12268;DHT22;6196;48.398;11.736;2023-05-10T10:05:44;17.30;99.90
12268;DHT22;6196;48.398;11.736;2023-05-10T10:08:12;17.30;99.90
12268;DHT22;6196;48.398;11.736;2023-05-10T10:10:40;17.40;99.90
12268;DHT22;6196;48.398;11.736;2023-05-10T10:13:08;17.20;99.90
12268;DHT22;6196;48.398;11.736;2023-05-10T10:15:35;17.20;99.90
12268;DHT22;6196;48.398;11.736;2023-05-10T10:18:02;17.30;99.90
12268;DHT22;6196;48.398;11.736;2023-05-10T10:20:33;17.40;99.90
12268;DHT22;6196;48.398;11.736;2023-05-10T10:23:00;17.40;99.90
12268;DHT22;6196;48.398;11.736;2023-05-10T10:25:27;17.20;99.90
12268;DHT22;6196;48.398;11.736;2023-05-10T10:30:54;17.40;99.90
12268;DHT22;6196;48.398;11.736;2023-05-10T10:34:17;17.10;99.90
12268;DHT22;6196;48.398;11.736;2023-05-10T10:36:29;16.80;99.90
12268;DHT22;6196;48.398;11.736;2023-05-10T10:38:58;16.70;99.90
12268;DHT22;6196;48.398;11.736;2023-05-10T10:41:35;17.00;99.90
12268;DHT22;6196;48.398;11.736;2023-05-10T10:50:02;17.00;99.90
12268;DHT22;6196;48.398;11.736;2023-05-10T10:52:34;17.10;99.90
12268;DHT22;6196;48.398;11.736;2023-05-10T10:55:11;17.10;99.90
12268;DHT22;6196;48.398;11.736;2023-05-10T10:57:45;17.00;99.90
12268;DHT22;6196;48.398;11.736;2023-05-10T11:00:35;17.10;99.90
12268;DHT22;6196;48.398;11.736;2023-05-10T11:03:08;17.30;99.90
12268;DHT22;6196;48.398;11.736;2023-05-10T11:05:37;17.80;99.90
12268;DHT22;6196;48.398;11.736;2023-05-10T11:08:29;17.90;99.90
12268;DHT22;6196;48.398;11.736;2023-05-10T11:13:30;18.80;99.90
12268;DHT22;6196;48.398;11.736;2023-05-10T11:15:59;19.00;99.90
12268;DHT22;6196;48.398;11.736;2023-05-10T11:18:39;19.50;99.90
12268;DHT22;6196;48.398;11.736;2023-05-10T11:21:09;19.10;99.90
12268;DHT22;6196;48.398;11.736;2023-05-10T11:26:09;19.60;99.90
12268;DHT22;6196;48.398;11.736;2023-05-10T11:28:47;19.40;99.90
12268;DHT22;6196;48.398;11.736;2023-05-10T11:31:19;18.70;99.90
12268;DHT22;6196;48.398;11.736;2023-05-10T11:33:51;18.30;99.90
12268;DHT22;6196;48.398;11.736;2023-05-10T11:36:33;18.00;99.90
12268;DHT22;6196;48.398;11.736;2023-05-10T11:39:01;17.90;99.90
12268;DHT22;6196;48.398;11.736;2023-05-10T11:41:30;17.70;99.90
12268;DHT22;6196;48.398;11.736;2023-05-10T11:43:58;17.40;99.90
12268;DHT22;6196;48.398;11.736;2023-05-10T11:46:27;17.00;99.90
12268;DHT22;6196;48.398;11.736;2023-05-10T11:48:58;16.60;99.90
12268;DHT22;6196;48.398;11.736;2023-05-10T11:51:28;16.50;99.90
12268;DHT22;6196;48.398;11.736;2023-05-10T11:53:56;16.50;99.90
12268;DHT22;6196;48.398;11.736;2023-05-10T11:56:23;16.40;99.90
12268;DHT22;6196;48.398;11.736;2023-05-10T11:58:54;16.20;99.90
12268;DHT22;6196;48.398;11.736;2023-05-10T12:01:23;16.30;99.90
12268;DHT22;6196;48.398;11.736;2023-05-10T12:03:53;16.30;99.90
12268;DHT22;6196;48.398;11.736;2023-05-10T12:06:21;16.30;99.90
12268;DHT22;6196;48.398;11.736;2023-05-10T12:08:48;16.20;99.90
12268;DHT22;6196;48.398;11.736;2023-05-10T12:11:20;16.00;99.90
12268;DHT22;6196;48.398;11.736;2023-05-10T12:13:51;15.90;99.90
12268;DHT22;6196;48.398;11.736;2023-05-10T12:16:26;16.00;99.90
12268;DHT22;6196;48.398;11.736;2023-05-10T12:19:00;16.30;99.90
12268;DHT22;6196;48.398;11.736;2023-05-10T12:21:30;16.60;99.90
12268;DHT22;6196;48.398;11.736;2023-05-10T12:24:02;16.70;99.90
12268;DHT22;6196;48.398;11.736;2023-05-10T12:26:30;16.70;99.90
12268;DHT22;6196;48.398;11.736;2023-05-10T12:29:14;16.90;99.90
12268;DHT22;6196;48.398;11.736;2023-05-10T12:31:52;16.80;99.90
12268;DHT22;6196;48.398;11.736;2023-05-10T12:34:30;16.70;99.90
12268;DHT22;6196;48.398;11.736;2023-05-10T12:37:03;16.90;99.90
12268;DHT22;6196;48.398;11.736;2023-05-10T12:39:43;17.00;99.90
12268;DHT22;6196;48.398;11.736;2023-05-10T12:42:10;17.10;99.90
12268;DHT22;6196;48.398;11.736;2023-05-10T12:44:38;17.20;99.90
12268;DHT22;6196;48.398;11.736;2023-05-10T12:47:06;17.40;99.90
12268;DHT22;6196;48.398;11.736;2023-05-10T12:49:33;16.90;99.90
12268;DHT22;6196;48.398;11.736;2023-05-10T12:52:00;16.80;99.90
12268;DHT22;6196;48.398;11.736;2023-05-10T12:54:27;16.30;99.90
12268;DHT22;6196;48.398;11.736;2023-05-10T12:56:54;16.40;99.90
12268;DHT22;6196;48.398;11.736;2023-05-10T12:59:21;16.30;99.90
12268;DHT22;6196;48.398;11.736;2023-05-10T13:01:49;16.30;99.90
12268;DHT22;6196;48.398;11.736;2023-05-10T13:04:16;16.20;99.90
12268;DHT22;6196;48.398;11.736;2023-05-10T13:06:43;16.10;99.90
12268;DHT22;6196;48.398;11.736;2023-05-10T13:09:10;16.20;99.90
12268;DHT22;6196;48.398;11.736;2023-05-10T13:11:37;16.30;99.90
12268;DHT22;6196;48.398;11.736;2023-05-10T13:14:03;16.30;99.90
12268;DHT22;6196;48.398;11.736;2023-05-10T13:16:31;16.30;99.90
12268;DHT22;6196;48.398;11.736;2023-05-10T13:18:58;16.10;99.90
12268;DHT22;6196;48.398;11.736;2023-05-10T13:21:25;16.10;99.90
12268;DHT22;6196;48.398;11.736;2023-05-10T13:23:52;16.10;99.90
12268;DHT22;6196;48.398;11.736;2023-05-10T13:26:19;16.10;99.90
12268;DHT22;6196;48.398;11.736;2023-05-10T13:28:46;15.80;99.90
12268;DHT22;6196;48.398;11.736;2023-05-10T13:31:15;15.60;99.90
12268;DHT22;6196;48.398;11.736;2023-05-10T13:33:42;15.60;99.90
12268;DHT22;6196;48.398;11.736;2023-05-10T13:36:09;15.70;99.90
12268;DHT22;6196;48.398;11.736;2023-05-10T13:38:36;15.70;99.90
12268;DHT22;6196;48.398;11.736;2023-05-10T13:41:03;15.70;99.90
12268;DHT22;6196;48.398;11.736;2023-05-10T13:43:29;15.60;99.90
12268;DHT22;6196;48.398;11.736;2023-05-10T13:45:56;15.80;99.90
12268;DHT22;6196;48.398;11.736;2023-05-10T13:48:23;15.80;99.90
12268;DHT22;6196;48.398;11.736;2023-05-10T13:50:50;15.80;99.90
12268;DHT22;6196;48.398;11.736;2023-05-10T13:53:17;15.70;99.90
12268;DHT22;6196;48.398;11.736;2023-05-10T13:55:44;15.80;99.90
12268;DHT22;6196;48.398;11.736;2023-05-10T13:58:11;15.40;99.90
12268;DHT22;6196;48.398;11.736;2023-05-10T14:00:38;15.50;99.90
12268;DHT22;6196;48.398;11.736;2023-05-10T14:03:04;15.80;99.90
12268;DHT22;6196;48.398;11.736;2023-05-10T14:05:32;15.80;99.90
12268;DHT22;6196;48.398;11.736;2023-05-10T14:07:59;15.60;99.90
12268;DHT22;6196;48.398;11.736;2023-05-10T14:10:26;15.40;99.90
12268;DHT22;6196;48.398;11.736;2023-05-10T14:12:53;15.50;99.90
12268;DHT22;6196;48.398;11.736;2023-05-10T14:15:20;15.70;99.90
12268;DHT22;6196;48.398;11.736;2023-05-10T14:17:47;15.80;99.90
12268;DHT22;6196;48.398;11.736;2023-05-10T14:20:14;15.90;99.90
12268;DHT22;6196;48.398;11.736;2023-05-10T14:22:41;16.10;99.90
12268;DHT22;6196;48.398;11.736;2023-05-10T14:25:08;16.40;99.90
12268;DHT22;6196;48.398;11.736;2023-05-10T14:27:35;16.40;99.90
12268;DHT22;6196;48.398;11.736;2023-05-10T14:30:03;16.50;99.90
12268;DHT22;6196;48.398;11.736;2023-05-10T14:32:30;16.40;99.90
12268;DHT22;6196;48.398;11.736;2023-05-10T14:34:58;16.40;99.90
12268;DHT22;6196;48.398;11.736;2023-05-10T14:37:26;16.70;99.90
12268;DHT22;6196;48.398;11.736;2023-05-10T14:39:53;16.70;99.90
12268;DHT22;6196;48.398;11.736;2023-05-10T14:42:20;17.00;99.90
12268;DHT22;6196;48.398;11.736;2023-05-10T14:44:47;16.60;99.90
12268;DHT22;6196;48.398;11.736;2023-05-10T14:47:14;16.30;99.90
12268;DHT22;6196;48.398;11.736;2023-05-10T14:49:41;15.80;99.90
12268;DHT22;6196;48.398;11.736;2023-05-10T14:52:08;15.70;99.90
12268;DHT22;6196;48.398;11.736;2023-05-10T14:54:35;15.90;99.90
12268;DHT22;6196;48.398;11.736;2023-05-10T14:57:02;15.60;99.90
12268;DHT22;6196;48.398;11.736;2023-05-10T14:59:29;15.50;99.90
12268;DHT22;6196;48.398;11.736;2023-05-10T15:01:56;15.90;99.90
12268;DHT22;6196;48.398;11.736;2023-05-10T15:04:23;16.10;99.90
12268;DHT22;6196;48.398;11.736;2023-05-10T15:06:53;16.20;99.90
12268;DHT22;6196;48.398;11.736;2023-05-10T15:09:25;16.00;99.90
12268;DHT22;6196;48.398;11.736;2023-05-10T15:11:54;16.10;99.90
12268;DHT22;6196;48.398;11.736;2023-05-10T15:14:22;16.00;99.90
12268;DHT22;6196;48.398;11.736;2023-05-10T15:16:49;15.90;99.90
12268;DHT22;6196;48.398;11.736;2023-05-10T15:19:16;15.30;99.90
12268;DHT22;6196;48.398;11.736;2023-05-10T15:21:43;15.40;99.90
12268;DHT22;6196;48.398;11.736;2023-05-10T15:24:11;15.60;99.90
12268;DHT22;6196;48.398;11.736;2023-05-10T15:26:38;15.70;99.90
12268;DHT22;6196;48.398;11.736;2023-05-10T15:29:04;15.70;99.90
12268;DHT22;6196;48.398;11.736;2023-05-10T15:31:31;15.70;99.90
12268;DHT22;6196;48.398;11.736;2023-05-10T15:34:01;15.30;99.90
12268;DHT22;6196;48.398;11.736;2023-05-10T15:36:28;15.40;99.90
12268;DHT22;6196;48.398;11.736;2023-05-10T15:38:55;15.20;99.90
12268;DHT22;6196;48.398;11.736;2023-05-10T15:41:22;15.10;99.90
12268;DHT22;6196;48.398;11.736;2023-05-10T15:43:50;15.10;99.90
12268;DHT22;6196;48.398;11.736;2023-05-10T15:46:16;15.10;99.90
12268;DHT22;6196;48.398;11.736;2023-05-10T15:48:43;14.50;99.90
12268;DHT22;6196;48.398;11.736;2023-05-10T15:51:10;14.50;99.90
12268;DHT22;6196;48.398;11.736;2023-05-10T15:53:37;14.30;99.90
12268;DHT22;6196;48.398;11.736;2023-05-10T15:56:18;14.10;99.90
12268;DHT22;6196;48.398;11.736;2023-05-10T15:58:45;14.00;99.90
12268;DHT22;6196;48.398;11.736;2023-05-10T16:01:12;14.00;99.90
12268;DHT22;6196;48.398;11.736;2023-05-10T16:03:39;14.10;99.90
12268;DHT22;6196;48.398;11.736;2023-05-10T16:06:06;14.10;99.90
12268;DHT22;6196;48.398;11.736;2023-05-10T16:08:33;14.10;99.90
12268;DHT22;6196;48.398;11.736;2023-05-10T16:11:01;14.10;99.90